createdAt,value
2023-04-16T00:00:33.200Z,102227.19
2023-04-16T00:03:00.237Z,102214.97
2023-04-16T00:05:27.725Z,102202.44
2023-04-16T00:07:54.649Z,102227.19
2023-04-16T00:10:21.764Z,102178.69
2023-04-16T00:12:50.697Z,102214.75
2023-04-16T00:15:17.629Z,102221.53
2023-04-16T00:17:44.702Z,102198.06
2023-04-16T00:20:14.270Z,102215.84
2023-04-16T00:22:41.305Z,102167.44
2023-04-16T00:25:08.348Z,102212.63
2023-04-16T00:27:35.342Z,102220.78
2023-04-16T00:30:07.815Z,102203.22
2023-04-16T00:32:37.377Z,102225.69
2023-04-16T00:35:04.531Z,102094.88
2023-04-16T00:37:31.483Z,102222.41
2023-04-16T00:39:58.421Z,102225.78
2023-04-16T00:42:25.855Z,102218.06
2023-04-16T00:44:52.706Z,102224.06
2023-04-16T00:47:21.598Z,102205.63
2023-04-16T00:49:49.013Z,102218.63
2023-04-16T00:52:16.209Z,102216.19
2023-04-16T00:54:43.377Z,102196.81
2023-04-16T00:57:12.809Z,102032.78
2023-04-16T00:59:42.553Z,102172.94
2023-04-16T01:02:09.506Z,102206.28
2023-04-16T01:04:36.795Z,102211.50
2023-04-16T01:07:03.698Z,102200.09
2023-04-16T01:09:30.420Z,102202.03
2023-04-16T01:11:58.857Z,102199.22
2023-04-16T01:14:25.738Z,102209.78
2023-04-16T01:16:52.632Z,102213.38
2023-04-16T01:19:19.681Z,102173.03
2023-04-16T01:21:51.753Z,102183.50
2023-04-16T01:24:18.730Z,102208.69
2023-04-16T01:26:45.637Z,102170.44
2023-04-16T01:29:14.879Z,102207.53
2023-04-16T01:31:41.759Z,102205.97
2023-04-16T01:34:08.758Z,102199.00
2023-04-16T01:36:35.815Z,102204.13
2023-04-16T01:39:02.987Z,102143.91
2023-04-16T01:41:35.012Z,102216.66
2023-04-16T01:44:06.564Z,102205.00
2023-04-16T01:46:35.612Z,102217.81
2023-04-16T01:49:05.634Z,102215.09
2023-04-16T01:51:32.370Z,102181.84
2023-04-16T01:53:59.152Z,102220.34
2023-04-16T01:56:28.402Z,102223.06
2023-04-16T01:58:55.293Z,102220.44
2023-04-16T02:01:22.551Z,102219.56
2023-04-16T02:03:49.792Z,102217.38
2023-04-16T02:06:17.141Z,102230.75
2023-04-16T02:08:44.223Z,102231.66
2023-04-16T02:11:11.190Z,102193.84
2023-04-16T02:13:38.126Z,102223.50
2023-04-16T02:16:05.206Z,102225.31
2023-04-16T02:18:31.937Z,102219.22
2023-04-16T02:21:02.602Z,102224.78
2023-04-16T02:23:29.454Z,102222.91
2023-04-16T02:25:56.286Z,102215.09
2023-04-16T02:28:27.854Z,102211.47
2023-04-16T02:30:54.872Z,102225.53
2023-04-16T02:33:26.053Z,102221.09
2023-04-16T02:35:53.345Z,102214.09
2023-04-16T02:38:20.167Z,102220.19
2023-04-16T02:40:51.587Z,102221.94
2023-04-16T02:43:21.216Z,102227.50
2023-04-16T02:45:48.014Z,102224.78
2023-04-16T02:48:14.800Z,102226.63
2023-04-16T02:50:41.612Z,102234.69
2023-04-16T02:53:08.326Z,102228.34
2023-04-16T02:55:37.445Z,102226.53
2023-04-16T02:58:04.483Z,102224.31
2023-04-16T03:00:34.147Z,102237.50
2023-04-16T03:03:00.861Z,102231.06
2023-04-16T03:05:27.721Z,102236.72
2023-04-16T03:07:57.492Z,102221.25
2023-04-16T03:10:26.835Z,102094.66
2023-04-16T03:12:53.599Z,102244.56
2023-04-16T03:15:20.334Z,102245.47
2023-04-16T03:17:47.487Z,102243.81
2023-04-16T03:20:14.679Z,102248.84
2023-04-16T03:22:43.830Z,102241.00
2023-04-16T03:25:13.279Z,102254.38
2023-04-16T03:27:40.469Z,102256.16
2023-04-16T03:30:08.626Z,102250.00
2023-04-16T03:32:36.321Z,102250.72
2023-04-16T03:35:07.446Z,102252.53
2023-04-16T03:37:36.698Z,102251.13
2023-04-16T03:40:05.838Z,102247.09
2023-04-16T03:42:32.785Z,102246.13
2023-04-16T03:45:01.712Z,102252.44
2023-04-16T03:47:28.589Z,102253.44
2023-04-16T03:49:57.569Z,102236.06
2023-04-16T03:52:27.201Z,102241.28
2023-04-16T03:54:54.086Z,102247.97
2023-04-16T03:57:22.912Z,102253.44
2023-04-16T03:59:49.635Z,102257.00
2023-04-16T04:02:18.781Z,102249.81
2023-04-16T04:04:47.958Z,102221.25
2023-04-16T04:07:16.323Z,102248.19
2023-04-16T04:09:45.728Z,102248.28
2023-04-16T04:12:12.812Z,102255.47
2023-04-16T04:14:40.305Z,102244.78
2023-04-16T04:17:08.559Z,102242.28
2023-04-16T04:19:35.529Z,102236.16
2023-04-16T04:22:05.025Z,102239.34
2023-04-16T04:24:31.750Z,102255.25
2023-04-16T04:27:02.068Z,102253.63
2023-04-16T04:29:29.030Z,102253.72
2023-04-16T04:31:56.109Z,102256.16
2023-04-16T04:34:22.982Z,102259.06
2023-04-16T04:36:49.622Z,102266.03
2023-04-16T04:39:16.518Z,102206.91
2023-04-16T04:41:43.320Z,102247.16
2023-04-16T04:44:10.134Z,102269.94
2023-04-16T04:46:37.060Z,102245.53
2023-04-16T04:49:03.786Z,102273.53
2023-04-16T04:51:33.552Z,102284.53
2023-04-16T04:54:02.497Z,102265.13
2023-04-16T04:56:29.354Z,102276.25
2023-04-16T04:58:56.484Z,102265.88
2023-04-16T05:01:23.562Z,102274.59
2023-04-16T05:03:50.596Z,102199.75
2023-04-16T05:06:17.751Z,102262.41
2023-04-16T05:08:44.587Z,102275.03
2023-04-16T05:11:11.778Z,102281.13
2023-04-16T05:13:41.847Z,102281.03
2023-04-16T05:16:08.786Z,102277.84
2023-04-16T05:18:38.225Z,102231.56
2023-04-16T05:21:07.583Z,102277.06
2023-04-16T05:23:34.495Z,102267.78
2023-04-16T05:26:03.616Z,102295.69
2023-04-16T05:28:31.167Z,102287.84
2023-04-16T05:31:00.354Z,102269.44
2023-04-16T05:33:27.239Z,102287.84
2023-04-16T05:35:54.358Z,102294.84
2023-04-16T05:38:21.225Z,102289.81
2023-04-16T05:40:48.124Z,102302.25
2023-04-16T05:43:15.022Z,102282.03
2023-04-16T05:45:44.193Z,102305.53
2023-04-16T05:48:12.888Z,102317.38
2023-04-16T05:50:39.824Z,102310.06
2023-04-16T05:53:12.770Z,102301.44
2023-04-16T05:55:42.338Z,102298.63
2023-04-16T05:58:12.429Z,102313.59
2023-04-16T06:00:41.850Z,102308.44
2023-04-16T06:03:13.929Z,102324.16
2023-04-16T06:05:41.336Z,102320.75
2023-04-16T06:08:11.589Z,102323.38
2023-04-16T06:10:38.560Z,102313.78
2023-04-16T06:13:07.949Z,102149.00
2023-04-16T06:15:35.052Z,102300.47
2023-04-16T06:18:07.578Z,102323.16
2023-04-16T06:20:34.748Z,102317.94
2023-04-16T06:23:10.989Z,102320.34
2023-04-16T06:25:38.002Z,102322.41
2023-04-16T06:28:09.541Z,102326.66
2023-04-16T06:30:36.665Z,102310.31
2023-04-16T06:33:11.859Z,102335.59
2023-04-16T06:35:41.778Z,102335.59
2023-04-16T06:38:11.874Z,102326.09
2023-04-16T06:40:42.633Z,102305.63
2023-04-16T06:43:15.739Z,102333.66
2023-04-16T06:45:53.762Z,102339.00
2023-04-16T06:51:13.455Z,102346.28
2023-04-16T06:54:45.123Z,102354.25
2023-04-16T06:57:54.455Z,102318.66
2023-04-16T07:00:44.442Z,102360.66
2023-04-16T07:03:12.553Z,102354.75
2023-04-16T07:08:44.843Z,102367.88
2023-04-16T07:11:17.798Z,102354.09
2023-04-16T07:13:44.935Z,102364.34
2023-04-16T07:16:12.009Z,102364.81
2023-04-16T07:18:41.485Z,102356.28
2023-04-16T07:21:08.523Z,102377.16
2023-04-16T07:23:35.554Z,102377.06
2023-04-16T07:26:10.705Z,102371.91
2023-04-16T07:28:43.081Z,102369.66
2023-04-16T07:31:10.754Z,102346.84
2023-04-16T07:33:37.691Z,102378.38
2023-04-16T07:36:04.913Z,102336.47
2023-04-16T07:38:34.079Z,102378.06
2023-04-16T07:41:01.567Z,102378.69
2023-04-16T07:43:28.373Z,102358.97
2023-04-16T07:45:55.419Z,102388.97
2023-04-16T07:48:22.292Z,102385.56
2023-04-16T07:50:50.467Z,102398.69
2023-04-16T07:53:24.602Z,102383.91
2023-04-16T07:55:51.634Z,102378.59
2023-04-16T07:58:18.504Z,102382.09
2023-04-16T08:00:45.784Z,102399.44
2023-04-16T08:03:13.010Z,102403.94
2023-04-16T08:05:48.013Z,102386.81
2023-04-16T08:08:18.265Z,102413.97
2023-04-16T08:10:45.171Z,102413.88
2023-04-16T08:13:12.008Z,102415.84
2023-04-16T08:15:42.084Z,102414.44
2023-04-16T08:18:13.069Z,102415.63
2023-04-16T08:20:40.183Z,102422.81
2023-04-16T08:23:07.180Z,102428.50
2023-04-16T08:25:33.770Z,102426.22
2023-04-16T08:28:02.855Z,102436.69
2023-04-16T08:30:29.546Z,102425.78
2023-04-16T08:32:58.840Z,102439.91
2023-04-16T08:35:30.521Z,102430.63
2023-04-16T08:37:57.999Z,102439.44
2023-04-16T08:40:29.044Z,102438.59
2023-04-16T08:42:59.499Z,102442.06
2023-04-16T08:45:27.783Z,102440.34
2023-04-16T08:47:54.447Z,102438.94
2023-04-16T08:50:26.106Z,102430.97
2023-04-16T08:52:58.197Z,102435.59
2023-04-16T08:55:37.831Z,102441.81
2023-04-16T08:58:15.936Z,102427.94
2023-04-16T09:00:43.799Z,102436.34
2023-04-16T09:03:15.347Z,102441.91
2023-04-16T09:05:42.834Z,102447.69
2023-04-16T09:08:11.705Z,102425.44
2023-04-16T09:10:38.374Z,102450.13
2023-04-16T09:13:05.071Z,102442.47
2023-04-16T09:15:34.984Z,102450.53
2023-04-16T09:18:01.800Z,102445.06
2023-04-16T09:20:30.915Z,102458.19
2023-04-16T09:22:57.543Z,102466.03
2023-04-16T09:25:25.120Z,102466.25
2023-04-16T09:27:51.871Z,102473.25
2023-04-16T09:30:28.352Z,102470.53
2023-04-16T09:33:23.409Z,102477.84
2023-04-16T09:35:53.130Z,102485.38
2023-04-16T09:38:22.385Z,102485.47
2023-04-16T09:41:06.215Z,102460.59
2023-04-16T09:43:32.820Z,102486.22
2023-04-16T09:45:59.358Z,102481.09
2023-04-16T09:48:30.942Z,102492.47
2023-04-16T09:50:59.095Z,102485.72
2023-04-16T09:53:31.797Z,102485.50
2023-04-16T09:55:58.485Z,102490.28
2023-04-16T09:58:27.474Z,102498.59
2023-04-16T10:01:10.977Z,102503.13
2023-04-16T10:03:40.036Z,102488.09
2023-04-16T10:06:06.802Z,102501.22
2023-04-16T10:08:33.416Z,102496.72
2023-04-16T10:11:02.516Z,102490.41
2023-04-16T10:13:32.293Z,102500.78
2023-04-16T10:15:59.077Z,102493.88
2023-04-16T10:18:29.229Z,102482.66
2023-04-16T10:21:00.119Z,102506.56
2023-04-16T10:23:26.997Z,102419.38
2023-04-16T10:25:57.379Z,102496.00
2023-04-16T10:28:29.121Z,102504.19
2023-04-16T10:31:00.189Z,102499.28
2023-04-16T10:33:36.504Z,102442.84
2023-04-16T10:36:26.549Z,102507.81
2023-04-16T10:38:58.662Z,102505.75
2023-04-16T10:41:28.734Z,102505.63
2023-04-16T10:44:10.009Z,102510.88
2023-04-16T10:46:39.216Z,102513.50
2023-04-16T10:49:16.670Z,102506.97
2023-04-16T10:51:53.656Z,102507.38
2023-04-16T10:54:26.547Z,102473.19
2023-04-16T10:56:56.327Z,102506.28
2023-04-16T10:59:30.199Z,102508.69
2023-04-16T11:02:01.652Z,102501.94
2023-04-16T11:04:40.287Z,102502.59
2023-04-16T11:07:17.503Z,102507.59
2023-04-16T11:09:47.329Z,102510.97
2023-04-16T11:12:17.025Z,102508.78
2023-04-16T11:14:50.022Z,102503.00
2023-04-16T11:17:17.351Z,102496.00
2023-04-16T11:19:44.354Z,102484.00
2023-04-16T11:22:17.175Z,102504.84
2023-04-16T11:24:50.033Z,102500.13
2023-04-16T11:27:16.684Z,102503.63
2023-04-16T11:29:47.540Z,102501.88
2023-04-16T11:32:24.526Z,102507.59
2023-04-16T11:34:51.204Z,102503.63
2023-04-16T11:37:22.281Z,102500.34
2023-04-16T11:39:50.864Z,102511.59
2023-04-16T11:42:24.139Z,102514.41
2023-04-16T11:45:00.402Z,102508.94
2023-04-16T11:47:30.877Z,102499.78
2023-04-16T11:49:58.685Z,102511.88
2023-04-16T11:52:33.656Z,102428.75
2023-04-16T11:55:00.468Z,102514.50
2023-04-16T11:57:33.653Z,102514.72
2023-04-16T12:00:01.524Z,102506.00
2023-04-16T12:02:36.650Z,102523.22
2023-04-16T12:05:08.561Z,102515.47
2023-04-16T12:07:48.384Z,102503.59
2023-04-16T12:10:14.982Z,102524.44
2023-04-16T12:12:43.805Z,102522.69
2023-04-16T12:15:11.253Z,102533.16
2023-04-16T12:17:38.941Z,102532.41
2023-04-16T12:20:09.995Z,102529.41
2023-04-16T12:22:50.843Z,102538.75
2023-04-16T12:25:18.260Z,102537.09
2023-04-16T12:27:56.052Z,102538.97
2023-04-16T12:30:26.301Z,102537.63
2023-04-16T12:33:16.870Z,102535.22
2023-04-16T12:35:44.100Z,102516.13
2023-04-16T12:38:11.907Z,102525.25
2023-04-16T12:40:38.810Z,102527.13
2023-04-16T12:43:05.571Z,102531.25
2023-04-16T12:45:32.240Z,102537.47
2023-04-16T12:47:59.459Z,102536.78
2023-04-16T12:50:28.562Z,102493.22
2023-04-16T12:52:56.574Z,102525.28
2023-04-16T12:55:23.208Z,102514.53
2023-04-16T12:57:55.226Z,102524.28
2023-04-16T13:00:22.096Z,102531.50
2023-04-16T13:02:48.859Z,102535.44
2023-04-16T13:05:16.688Z,102535.09
2023-04-16T13:07:43.493Z,102533.56
2023-04-16T13:10:10.887Z,102526.56
2023-04-16T13:12:39.877Z,102522.91
2023-04-16T13:15:06.945Z,102533.06
2023-04-16T13:17:33.523Z,102518.81
2023-04-16T13:20:00.218Z,102527.88
2023-04-16T13:22:26.811Z,102537.78
2023-04-16T13:24:53.445Z,102519.13
2023-04-16T13:27:22.432Z,102523.28
2023-04-16T13:29:48.997Z,102521.53
2023-04-16T13:32:18.976Z,102527.25
2023-04-16T13:34:45.713Z,102512.53
2023-04-16T13:37:15.358Z,102525.41
2023-04-16T13:39:45.172Z,102517.19
2023-04-16T13:42:11.712Z,102538.81
2023-04-16T13:44:38.361Z,102486.56
2023-04-16T13:47:05.261Z,102524.84
2023-04-16T13:49:36.084Z,102538.69
2023-04-16T13:52:03.101Z,102528.09
2023-04-16T13:54:32.261Z,102532.09
2023-04-16T13:56:58.840Z,102526.97
2023-04-16T13:59:26.288Z,102524.59
2023-04-16T14:01:57.754Z,102520.88
2023-04-16T14:04:24.546Z,102522.97
2023-04-16T14:06:51.274Z,102538.16
2023-04-16T14:09:17.831Z,102521.97
2023-04-16T14:11:44.484Z,102534.06
2023-04-16T14:14:12.386Z,102536.81
2023-04-16T14:16:39.139Z,102529.59
2023-04-16T14:19:08.231Z,102521.38
2023-04-16T14:21:35.060Z,102528.66
2023-04-16T14:24:02.085Z,102521.66
2023-04-16T14:26:28.794Z,102528.53
2023-04-16T14:28:55.583Z,102523.44
2023-04-16T14:31:27.216Z,102521.72
2023-04-16T14:33:56.523Z,102519.38
2023-04-16T14:36:23.199Z,102513.66
2023-04-16T14:38:51.838Z,102532.59
2023-04-16T14:41:18.541Z,102530.22
2023-04-16T14:43:47.401Z,102522.41
2023-04-16T14:46:17.809Z,102506.72
2023-04-16T14:48:44.981Z,102522.81
2023-04-16T14:51:11.707Z,102530.75
2023-04-16T14:53:40.783Z,102516.69
2023-04-16T14:56:13.664Z,102509.34
2023-04-16T14:58:40.261Z,102510.09
2023-04-16T15:01:06.930Z,102509.97
2023-04-16T15:03:33.969Z,102500.22
2023-04-16T15:06:02.508Z,102507.84
2023-04-16T15:08:29.130Z,102455.56
2023-04-16T15:10:55.716Z,102511.56
2023-04-16T15:13:22.415Z,102514.53
2023-04-16T15:15:51.838Z,102515.06
2023-04-16T15:18:18.445Z,102507.81
2023-04-16T15:20:45.156Z,102516.78
2023-04-16T15:23:14.023Z,102513.53
2023-04-16T15:25:40.767Z,102513.78
2023-04-16T15:28:07.340Z,102512.56
2023-04-16T15:30:34.143Z,102525.25
2023-04-16T15:33:01.123Z,102506.19
2023-04-16T15:35:27.758Z,102500.22
2023-04-16T15:37:59.057Z,102515.69
2023-04-16T15:40:25.742Z,102515.31
2023-04-16T15:42:54.550Z,102507.81
2023-04-16T15:45:21.450Z,102511.31
2023-04-16T15:47:51.268Z,102511.56
2023-04-16T15:50:19.433Z,102518.28
2023-04-16T15:52:46.946Z,102508.94
2023-04-16T15:55:14.990Z,102514.28
2023-04-16T15:57:44.155Z,102506.31
2023-04-16T16:00:17.580Z,102502.59
2023-04-16T16:02:46.658Z,102509.22
2023-04-16T16:05:14.500Z,102491.50
2023-04-16T16:07:42.368Z,102499.97
2023-04-16T16:10:13.549Z,102511.94
2023-04-16T16:12:41.279Z,102497.34
2023-04-16T16:15:08.409Z,102505.81
2023-04-16T16:17:35.097Z,102513.91
2023-04-16T16:20:01.758Z,102503.09
2023-04-16T16:22:28.559Z,102499.97
2023-04-16T16:24:56.385Z,102509.47
2023-04-16T16:27:23.137Z,102511.31
2023-04-16T16:29:52.274Z,102509.22
2023-04-16T16:32:18.998Z,102499.25
2023-04-16T16:34:45.982Z,102512.47
2023-04-16T16:37:12.585Z,102514.97
2023-04-16T16:39:39.192Z,102519.66
2023-04-16T16:42:10.689Z,102515.06
2023-04-16T16:44:39.730Z,102519.66
2023-04-16T16:47:06.569Z,102524.03
2023-04-16T16:49:33.268Z,102508.44
2023-04-16T16:52:02.219Z,102520.19
2023-04-16T16:54:31.348Z,102519.53
2023-04-16T16:56:58.766Z,102523.88
2023-04-16T16:59:27.779Z,102527.47
2023-04-16T17:01:56.734Z,102527.22
2023-04-16T17:04:23.662Z,102524.22
2023-04-16T17:06:50.849Z,102517.13
2023-04-16T17:09:17.558Z,102538.00
2023-04-16T17:11:46.444Z,102522.31
2023-04-16T17:14:13.030Z,102530.38
2023-04-16T17:16:42.064Z,102518.53
2023-04-16T17:19:12.370Z,102519.00
2023-04-16T17:21:39.049Z,102470.63
2023-04-16T17:24:07.878Z,102522.13
2023-04-16T17:26:34.476Z,102516.06
2023-04-16T17:29:01.191Z,102533.25
2023-04-16T17:31:27.913Z,102534.47
2023-04-16T17:33:56.894Z,102537.19
2023-04-16T17:36:23.658Z,102537.19
2023-04-16T17:38:50.663Z,102545.75
2023-04-16T17:41:17.381Z,102549.38
2023-04-16T17:43:44.028Z,102538.38
2023-04-16T17:46:13.121Z,102505.16
2023-04-16T17:48:39.823Z,102556.97
2023-04-16T17:51:11.412Z,102545.75
2023-04-16T17:53:38.231Z,102551.44
2023-04-16T17:56:05.070Z,102562.91
2023-04-16T17:58:35.023Z,102559.41
2023-04-16T18:01:05.213Z,102522.56
2023-04-16T18:03:33.336Z,102502.84
2023-04-16T18:06:00.739Z,102562.06
2023-04-16T18:08:30.006Z,102572.13
2023-04-16T18:10:58.939Z,102558.59
2023-04-16T18:13:25.715Z,102570.16
2023-04-16T18:15:54.622Z,102569.19
2023-04-16T18:18:21.438Z,102574.75
2023-04-16T18:20:48.190Z,102552.47
2023-04-16T18:23:17.095Z,102563.03
2023-04-16T18:25:44.599Z,102575.16
2023-04-16T18:28:13.782Z,102568.06
2023-04-16T18:30:41.027Z,102568.31
2023-04-16T18:33:38.273Z,102557.94
2023-04-16T18:35:54.148Z,102579.78
2023-04-16T18:38:20.750Z,102554.88
2023-04-16T18:40:49.921Z,102580.22
2023-04-16T18:43:19.198Z,102584.81
2023-04-16T18:45:45.797Z,102582.19
2023-04-16T18:48:12.406Z,102592.34
2023-04-16T18:50:38.995Z,102589.88
2023-04-16T18:53:05.664Z,102580.25
2023-04-16T18:55:34.428Z,102591.19
2023-04-16T18:58:01.286Z,102564.84
2023-04-16T19:00:27.902Z,102579.19
2023-04-16T19:02:54.610Z,102596.97
2023-04-16T19:05:22.961Z,102585.50
2023-04-16T19:07:49.511Z,102589.56
2023-04-16T19:10:16.316Z,102589.34
2023-04-16T19:12:47.703Z,102599.28
2023-04-16T19:15:14.860Z,102602.13
2023-04-16T19:17:43.800Z,102584.66
2023-04-16T19:20:11.614Z,102606.09
2023-04-16T19:22:38.695Z,102598.00
2023-04-16T19:25:06.211Z,102603.78
2023-04-16T19:27:32.858Z,102604.66
2023-04-16T19:29:59.715Z,102593.28
2023-04-16T19:32:26.491Z,102605.84
2023-04-16T19:34:53.104Z,102606.09
2023-04-16T19:37:19.674Z,102608.03
2023-04-16T19:39:46.261Z,102608.25
2023-04-16T19:42:12.892Z,102598.53
2023-04-16T19:44:41.956Z,102602.25
2023-04-16T19:47:08.861Z,102583.81
2023-04-16T19:49:38.572Z,102608.03
2023-04-16T19:52:05.499Z,102582.94
2023-04-16T19:54:33.906Z,102621.16
2023-04-16T19:57:01.974Z,102605.41
2023-04-16T19:59:29.306Z,102598.66
2023-04-16T20:01:56.264Z,102624.41
2023-04-16T20:04:23.303Z,102624.19
2023-04-16T20:06:50.324Z,102623.34
2023-04-16T20:09:20.430Z,102610.53
2023-04-16T20:11:50.053Z,102608.91
2023-04-16T20:14:17.480Z,102631.84
2023-04-16T20:16:47.529Z,102639.28
2023-04-16T20:19:17.266Z,102592.09
2023-04-16T20:21:45.738Z,102628.13
2023-04-16T20:24:12.888Z,102617.63
2023-04-16T20:26:39.870Z,102618.50
2023-04-16T20:29:07.056Z,102633.69
2023-04-16T20:31:34.013Z,102619.25
2023-04-16T20:34:01.027Z,102622.66
2023-04-16T20:36:29.992Z,102629.53
2023-04-16T20:38:56.764Z,102615.28
2023-04-16T20:41:27.451Z,102616.28
2023-04-16T20:43:54.715Z,102622.63
2023-04-16T20:46:24.507Z,102606.84
2023-04-16T20:48:52.150Z,102579.28
2023-04-16T20:51:18.973Z,102612.75
2023-04-16T20:53:46.505Z,102617.94
2023-04-16T20:56:15.178Z,102592.66
2023-04-16T20:58:44.491Z,102597.53
2023-04-16T21:01:11.657Z,102610.97
2023-04-16T21:03:40.897Z,102610.31
2023-04-16T21:06:12.916Z,102597.41
2023-04-16T21:08:39.724Z,102610.53
2023-04-16T21:11:06.538Z,102608.75
2023-04-16T21:13:33.658Z,102594.88
2023-04-16T21:16:00.529Z,102593.66
2023-04-16T21:18:27.473Z,102593.56
2023-04-16T21:20:54.218Z,102599.00
2023-04-16T21:23:21.254Z,102608.72
2023-04-16T21:25:50.965Z,102595.94
2023-04-16T21:28:18.095Z,102595.22
2023-04-16T21:30:45.081Z,102614.38
2023-04-16T21:33:13.238Z,102613.72
2023-04-16T21:35:41.000Z,102610.41
2023-04-16T21:38:10.269Z,102617.41
2023-04-16T21:40:37.153Z,102596.03
2023-04-16T21:43:04.050Z,102616.53
2023-04-16T21:45:31.277Z,102601.97
2023-04-16T21:47:58.175Z,102619.38
2023-04-16T21:50:27.622Z,102592.44
2023-04-16T21:52:56.805Z,102622.19
2023-04-16T21:55:26.333Z,102614.50
2023-04-16T21:57:53.239Z,102630.56
2023-04-16T22:00:24.068Z,102618.81
2023-04-16T22:02:56.143Z,102622.38
2023-04-16T22:05:25.893Z,102619.56
2023-04-16T22:07:53.308Z,102444.72
2023-04-16T22:10:20.395Z,102590.91
2023-04-16T22:12:53.759Z,102612.88
2023-04-16T22:15:20.961Z,102596.16
2023-04-16T22:17:50.829Z,102618.91
2023-04-16T22:20:18.001Z,102611.69
2023-04-16T22:22:47.298Z,102604.25
2023-04-16T22:25:16.772Z,102616.56
2023-04-16T22:27:46.338Z,102603.56
2023-04-16T22:30:13.780Z,102585.19
2023-04-16T22:32:40.901Z,102618.84
2023-04-16T22:35:08.302Z,102611.16
2023-04-16T22:37:37.375Z,102615.28
2023-04-16T22:40:08.685Z,102613.50
2023-04-16T22:42:36.015Z,102612.75
2023-04-16T22:45:03.411Z,102615.66
2023-04-16T22:47:30.473Z,102614.81
2023-04-16T22:49:57.544Z,102603.44
2023-04-16T22:52:24.386Z,102611.97
2023-04-16T22:54:51.236Z,102623.75
2023-04-16T22:57:21.266Z,102622.88
2023-04-16T22:59:50.530Z,102606.34
2023-04-16T23:02:18.640Z,102616.44
2023-04-16T23:04:48.120Z,102605.97
2023-04-16T23:07:15.172Z,102574.84
2023-04-16T23:09:44.936Z,102614.34
2023-04-16T23:12:11.612Z,102621.13
2023-04-16T23:14:38.639Z,102602.97
2023-04-16T23:17:07.716Z,102551.91
2023-04-16T23:19:34.424Z,102622.19
2023-04-16T23:22:04.201Z,102621.59
2023-04-16T23:24:31.247Z,102633.06
2023-04-16T23:26:58.118Z,102609.84
2023-04-16T23:29:25.199Z,102605.56
2023-04-16T23:31:54.376Z,102620.25
2023-04-16T23:34:24.006Z,102618.59
2023-04-16T23:36:51.122Z,102632.00
2023-04-16T23:39:18.116Z,102629.38
2023-04-16T23:41:45.285Z,102614.72
2023-04-16T23:44:12.098Z,102621.22
2023-04-16T23:46:40.747Z,102606.56
2023-04-16T23:49:07.642Z,102440.44
2023-04-16T23:51:34.518Z,102617.94
2023-04-16T23:54:03.585Z,102627.47
2023-04-16T23:56:32.744Z,102629.50
2023-04-16T23:59:00.045Z,102627.66
